CheckWX is a tool to help pilots better visualize weather data.  It is not intended as a substitute for an official pre-flight weather briefing.

01:37:02 UTC

LECO TAF
A Coruña Airport
Culleredo, Spain
TAF LECO 232000Z 2321/2421 16004KT CAVOK TX21/2415Z TN10/2405Z PROB40 TEMPO 2413/2418 35010KT

Feb-23@
21:00 UTC

Feb-23 @ 21:00 UTC

Feb-24@
21:00 UTC

Feb-24 @ 21:00 UTC

TAF LECO 232000Z 2321/2421 16004KT CAVOK TX21/2415Z TN10/2405Z
Wind
  • 160° at 4 KTS
Cloud Levels
  • No significant clouds

Feb-24@
13:00 UTC

Feb-24 @ 13:00 UTC

Feb-24@
18:00 UTC

Feb-24 @ 18:00 UTC

PROB40 TEMPO 2413/2418 35010KT

Temporary - 40% Likelihood

Temporary - 40% Likelihood during this time.

Wind
  • 350° at 10 KTS